Keiyo Maru No.8 — JD3763 — position and weather

sailwx.info

Track history (hours):
 
Tides and Currents Weather Stations Pressure Air Temp Water Temp Dewpoint Dewpoint Depression Visibility Wind Speed Wind Dir Waves Ship Positions

Keiyo Maru No.8

Last reported at 2017-Oct-16 03:42 UTC. Time now 2017-Oct-19 16:24 UTC.
Position N 34°41' E 134°46'.

Length 74 m; draft 4.5 m.

Type: Tanker. MMSI: 431005858.

Date/timePositionNaut miles runAvg speedWind from/ knotsBaromVisibWave heightAir tempDewpointWater temp
2017-Oct-16 03:42N 34°41' E 134°46'512.6
2017-Oct-16 03:20N 34°38' E 134°50'411.3
2017-Oct-16 03:00N 34°37' E 134°55'611.6
2017-Oct-16 02:30N 34°37' E 135°02'510.0
2017-Oct-16 02:00N 34°33' E 135°05'1413.1
2017-Oct-16 00:57N 34°19' E 135°04'4 9.8
2017-Oct-16 00:30N 34°15' E 135°05'2 4.2
2017-Oct-16 00:00N 34°15' E 135°07'0 0.0
2017-Oct-15 23:30N 34°15' E 135°07'0 0.0
2017-Oct-15 23:00N 34°15' E 135°07'0 0.0
2017-Oct-15 22:30N 34°15' E 135°07'0 0.0
2017-Oct-15 22:00N 34°15' E 135°07'2 3.3
2017-Oct-15 21:30N 34°15' E 135°05'1711.3
2017-Oct-15 20:00N 34°32' E 135°03'610.7
2017-Oct-15 19:29N 34°37' E 135°01'  
2017-Oct-10 13:00N 35°23' E 139°49'611.4
2017-Oct-10 12:30N 35°19' E 139°44'611.9
2017-Oct-10 12:00N 35°14' E 139°47'713.2
2017-Oct-10 11:30N 35°07' E 139°46'714.1
2017-Oct-10 11:00N 35°00' E 139°44'711.7
2017-Oct-10 10:23N 34°54' E 139°47'  
Track history (hours):
 
Tides and Currents Weather Stations Pressure Air Temp Water Temp Dewpoint Dewpoint Depression Visibility Wind Speed Wind Dir Waves Ship Positions

Keiyo Maru No.8

Last reported at 2017-Oct-16 03:42 UTC. Time now 2017-Oct-19 16:24 UTC.
Position N 34°41' E 134°46'.

Length 74 m; draft 4.5 m.

Type: Tanker. MMSI: 431005858.

Date/timePositionNaut miles runAvg speedWind from/ knotsBaromVisibWave heightAir tempDewpointWater temp
2017-Oct-16 03:42N 34°41' E 134°46'512.6
2017-Oct-16 03:20N 34°38' E 134°50'411.3
2017-Oct-16 03:00N 34°37' E 134°55'611.6
2017-Oct-16 02:30N 34°37' E 135°02'510.0
2017-Oct-16 02:00N 34°33' E 135°05'1413.1
2017-Oct-16 00:57N 34°19' E 135°04'4 9.8
2017-Oct-16 00:30N 34°15' E 135°05'2 4.2
2017-Oct-16 00:00N 34°15' E 135°07'0 0.0
2017-Oct-15 23:30N 34°15' E 135°07'0 0.0
2017-Oct-15 23:00N 34°15' E 135°07'0 0.0
2017-Oct-15 22:30N 34°15' E 135°07'0 0.0
2017-Oct-15 22:00N 34°15' E 135°07'2 3.3
2017-Oct-15 21:30N 34°15' E 135°05'1711.3
2017-Oct-15 20:00N 34°32' E 135°03'610.7
2017-Oct-15 19:29N 34°37' E 135°01'  
2017-Oct-10 13:00N 35°23' E 139°49'611.4
2017-Oct-10 12:30N 35°19' E 139°44'611.9
2017-Oct-10 12:00N 35°14' E 139°47'713.2
2017-Oct-10 11:30N 35°07' E 139°46'714.1
2017-Oct-10 11:00N 35°00' E 139°44'711.7
2017-Oct-10 10:23N 34°54' E 139°47'  

Dump ship's entire track history